• Join FlightAware (Why Join?)
  • Login
  • US Flag 
10:07PM EDT


 

Airport Tracker/Info


-or-


 

Live Flight TrackerFlight Track Log ✈ N80LP ✈ 02-Aug-2013 ✈ KBFI - KJAC

Flight Track Log - Related Links

Times and Time Zones

All times are in EDT time to prevent confusion due to time zone crossing. See the N80LP flight status page for this flight to view local times or setup timezone preferences in your user account.

Time Position Orientation Groundspeed Altitude Reporting Facility
EDT Latitude Longitude Course Direction KTS MPH feet Rate Location/Type
08:05PM 47.4994 -122.2747 147° Southeast 200 230 1,100  Level Seattle Center
08:06PM 47.4444 -122.2211 147° Southeast 223 257 3,500 2,160 Climbing Seattle Center
08:07PM 47.4350 -122.1203 98° East 256 295 5,800 2,520 Climbing Seattle Center
08:08PM 47.4336 -122.0078 91° East 273 314 8,700 2,940 Climbing Seattle Center
08:09PM 47.4319 -121.8936 91° East 279 321 11,800 3,060 Climbing Seattle Center
08:10PM 47.4306 -121.7872 91° East 262 302 15,000 2,700 Climbing Seattle Center
08:11PM 47.4289 -121.6650 91° East 278 320 17,300 2,220 Climbing Seattle Center
08:12PM 47.4242 -121.5511 93° East 290 334 19,600 2,340 Climbing Seattle Center
08:13PM 47.3942 -121.4411 112° Southeast 289 333 22,100 2,400 Climbing Seattle Center
08:14PM 47.3650 -121.3328 112° Southeast 288 331 24,500 2,160 Climbing Seattle Center
08:15PM 47.3342 -121.2225 112° Southeast 293 337 26,600 1,980 Climbing Seattle Center
08:16PM 47.3028 -121.1094 112° Southeast 300 345 28,600 2,160 Climbing Seattle Center
08:17PM 47.2650 -120.9778 113° Southeast 294 338 31,100 2,040 Climbing Seattle Center
08:18PM 47.2336 -120.8678 113° Southeast 293 337 32,900 1,560 Climbing Seattle Center
08:19PM 47.2064 -120.7694 112° Southeast 292 336 34,300 1,320 Climbing Seattle Center
08:20PM 47.1753 -120.6589 112° Southeast 292 336 35,700 1,140 Climbing Seattle Center
08:21PM 47.1422 -120.5464 113° Southeast 299 344 36,700 720 Climbing Seattle Center
08:22PM 47.1044 -120.4025 111° Southeast 313 360 37,200 420 Climbing Seattle Center
08:23PM 47.0628 -120.2747 116° Southeast 340 391 37,600 360 Climbing Seattle Center
08:24PM 47.0283 -120.1572 113° Southeast 354 407 38,000 360 Climbing Seattle Center
08:25PM 46.9839 -120.0033 113° Southeast 367 422 38,400 360 Climbing Seattle Center
08:26PM 46.9425 -119.8647 114° Southeast 373 429 38,800 360 Climbing Seattle Center
08:27PM 46.9006 -119.7231 113° Southeast 379 436 39,200 360 Climbing Seattle Center
08:28PM 46.8589 -119.5819 113° Southeast 380 437 39,600 360 Climbing Seattle Center
08:29PM 46.8153 -119.4406 114° Southeast 383 441 40,000 360 Climbing Seattle Center
08:30PM 46.7725 -119.2989 114° Southeast 383 441 40,400 360 Climbing Seattle Center
08:31PM 46.7256 -119.1450 114° Southeast 380 437 40,800 240 Climbing Seattle Center
08:32PM 46.6828 -119.0058 114° Southeast 378 435 41,000 60 Climbing Seattle Center
08:33PM 46.6364 -118.8525 114° Southeast 381 438 41,000  Level Seattle Center
08:34PM 46.5922 -118.7081 114° Southeast 390 449 41,000  Level Seattle Center
08:35PM 46.5472 -118.5639 114° Southeast 392 451 41,000  Level Seattle Center
08:36PM 46.5022 -118.4200 114° Southeast 393 452 41,000  Level Seattle Center
08:37PM 46.4556 -118.2742 115° Southeast 398 458 41,000  Level Seattle Center
08:38PM 46.4097 -118.1308 115° Southeast 396 456 41,000  Level Seattle Center
08:39PM 46.3636 -117.9833 114° Southeast 401 461 41,000  Level Seattle Center
08:40PM 46.3169 -117.8372 115° Southeast 403 464 41,000  Level Seattle Center
08:41PM 46.2694 -117.6917 115° Southeast 403 464 41,000  Level Seattle Center
08:42PM 46.2114 -117.5156 115° Southeast 406 467 41,000  Level Seattle Center
08:43PM 46.1642 -117.3692 115° Southeast 405 466 41,000  Level Seattle Center
08:44PM 46.1161 -117.2217 115° Southeast 408 470 41,000  Level Seattle Center
08:45PM 46.0675 -117.0761 116° Southeast 405 466 41,000  Level Seattle Center
08:46PM 46.0192 -116.9261 115° Southeast 413 475 41,000  Level Seattle Center
08:47PM 45.9700 -116.7772 115° Southeast 413 475 41,000  Level Seattle Center
08:48PM 45.9189 -116.6339 117° Southeast 407 468 41,000  Level Seattle Center
08:49PM 45.8706 -116.4864 115° Southeast 410 472 41,000  Level Seattle Center
08:50PM 45.8197 -116.3386 116° Southeast 414 476 41,000  Level Seattle Center
08:51PM 45.7603 -116.1622 116° Southeast 412 474 41,000  Level Seattle Center
08:53PM 45.7089 -116.0150 117° Southeast 415 478 41,000  Level Seattle Center
08:54PM 45.6575 -115.8667 116° Southeast 417 480 41,000  Level Seattle Center
08:55PM 45.6033 -115.7061 116° Southeast 417 480 41,000  Level Seattle Center
08:56PM 45.5525 -115.5628 117° Southeast 419 482 41,000  Level Seattle Center
08:57PM 45.5033 -115.4181 116° Southeast 423 487 41,000  Level Seattle Center
08:58PM 45.4442 -115.2525 117° Southeast 421 484 41,000  Level Seattle Center
08:59PM 45.3947 -115.1081 116° Southeast 421 484 41,000  Level Seattle Center
09:00PM 45.3492 -114.9592 113° Southeast 425 489 41,000  Level Seattle Center
09:01PM 45.2950 -114.7853 114° Southeast 430 495 41,000  Level Seattle Center
09:02PM 45.2483 -114.6369 114° Southeast 429 494 41,000  Level Seattle Center
09:03PM 45.2003 -114.4878 115° Southeast 431 496 41,000  Level Seattle Center
09:03PM 45.1689 -114.3897 114° Southeast 434 499 41,000  Level Salt Lake Center
09:04PM 45.1211 -114.2400 114° Southeast 435 501 41,000  Level Salt Lake Center
09:05PM 45.0733 -114.0897 114° Southeast 436 502 41,000  Level Salt Lake Center
09:06PM 45.0186 -113.9231 115° Southeast 435 501 41,000  Level Salt Lake Center
09:07PM 44.9622 -113.7489 115° Southeast 437 503 41,000  Level Salt Lake Center
09:08PM 44.9114 -113.5981 115° Southeast 441 507 41,000  Level Salt Lake Center
09:09PM 44.8614 -113.4492 115° Southeast 440 506 41,000  Level Salt Lake Center
09:10PM 44.8019 -113.2722 115° Southeast 445 512 41,000  Level Salt Lake Center
09:11PM 44.7525 -113.1219 115° Southeast 444 511 41,000  Level Salt Lake Center
09:12PM 44.6922 -112.9450 116° Southeast 448 516 41,000  Level Salt Lake Center
09:13PM 44.6428 -112.7956 115° Southeast 442 509 41,000  Level Salt Lake Center
09:14PM 44.5917 -112.6458 116° Southeast 445 512 41,000 -600 Level Salt Lake Center
09:16PM 44.5317 -112.4728 116° Southeast 443 510 39,800 -1,620 Descending Salt Lake Center
09:17PM 44.4808 -112.3261 116° Southeast 439 505 37,800 -2,100 Descending Salt Lake Center
09:18PM 44.4239 -112.1600 116° Southeast 428 493 35,600 -2,100 Descending Salt Lake Center
09:19PM 44.3744 -112.0197 116° Southeast 424 488 33,600 -2,100 Descending Salt Lake Center
09:20PM 44.3186 -111.8611 116° Southeast 414 476 31,400 -2,160 Descending Salt Lake Center
09:21PM 44.2731 -111.7289 116° Southeast 404 465 29,200 -2,280 Descending Salt Lake Center
09:22PM 44.2261 -111.5978 117° Southeast 400 460 26,800 -2,580 Descending Salt Lake Center
09:23PM 44.1722 -111.4478 117° Southeast 393 452 24,000 -2,580 Descending Salt Lake Center
09:24PM 44.1286 -111.3253 116° Southeast 379 436 21,600 -2,400 Descending Salt Lake Center
09:25PM 44.0794 -111.1886 117° Southeast 362 417 19,200 -1,860 Descending Salt Lake Center
09:26PM 44.0383 -111.0764 117° Southeast 349 402 17,900 -1,320 Descending Salt Lake Center
09:27PM 43.9922 -110.9481 117° Southeast 339 390 16,600 -1,320 Descending Salt Lake Center
09:28PM 43.9550 -110.8436 116° Southeast 328 377 15,200 -840 Descending Salt Lake Center
09:29PM 43.9172 -110.7411 117° Southeast 297 342 15,000 -240 Descending Salt Lake Center
09:30PM 43.8889 -110.6650 117° Southeast 225 259 14,800 -840 Descending Salt Lake Center
09:31PM 43.8469 -110.6175 141° Southeast 220 253 13,400 -1,680 Descending Salt Lake Center
09:32PM 43.7936 -110.6469 202° Southwest 209 241 11,400 -1,920 Descending Salt Lake Center
09:33PM 43.7389 -110.6739 200° South 209 241 9,500 -1,620 Descending Salt Lake Center
09:34PM 43.6911 -110.6961 199° South 197 227 8,200 -1,140 Descending Salt Lake Center
09:35PM 43.6539 -110.7150 200° South 166 191 7,200 -840 Descending Salt Lake Center
09:36PM 43.6150 -110.7339 199° South 153 176 6,500 -720 Descending Salt Lake Center